Amiret, Minnesota
Current Conditions -  °F | °C
As of 8:52 AM on Saturday 20 Dec 2014 (Local Time) from KTKC Reporting Station
Haze Haze  
Wind Chill: 24°   Ceiling: 900
Heat Index: 32°   Visibility: 5mi
Dew Point: 29°   Wind: 9mph
Humidity: 90%   Direction: 190°S
Pressure: 30.08"   Gusts: NA
Location:  44.2253°N, 95.6512°W
Report Text: KTKC 201452Z AUTO 19008KT 5SM BR OVC009 00/M01 A3008 RMK AO2 T00001015
Loading
Personal Weather Stations






























Interactive Weather Map New forecast layout! Learn more

10-Day Weather Forecast

Advertisements
Track Severe Weather on mobile